Time;durP1;ratioP1;P1;durP2;ratioP2;P2;SDS_P1;SDS_P2;PMS_P1;PMS_P2;Temp;Humidity;BMP_temperature;BMP_pressure;BME280_temperature;BME280_humidity;BME280_pressure;Samples;Min_cycle;Max_cycle;Signal;HPM_P1;HPM_P2
2022/05/11 00:00:08;;;;;;;9.82;1.90;;;;;;;;;;5021939;28;88982;-72
2022/05/11 00:02:36;;;;;;;9.18;2.30;;;;;;;;;;5025961;28;89104;-72
2022/05/11 00:05:04;;;;;;;5.45;1.80;;;;;;;;;;5023264;28;88010;-71
2022/05/11 00:07:31;;;;;;;10.45;2.08;;;;;;;;;;5018728;28;89712;-72
2022/05/11 00:09:57;;;;;;;6.22;1.75;;;;;;;;;;5025382;28;89088;-72
2022/05/11 00:12:23;;;;;;;6.22;2.17;;;;;;;;;;5025854;27;88488;-72
2022/05/11 00:14:50;;;;;;;16.88;2.20;;;;;;;;;;5024655;28;88280;-72
2022/05/11 00:17:16;;;;;;;8.18;2.50;;;;;;;;;;5030472;27;89554;-72
2022/05/11 00:19:42;;;;;;;9.27;2.40;;;;;;;;;;5035074;28;89101;-72
2022/05/11 00:22:08;;;;;;;8.80;2.63;;;;;;;;;;5032294;27;88679;-72
2022/05/11 00:24:36;;;;;;;9.45;2.58;;;;;;;;;;5028675;28;88755;-72
2022/05/11 00:27:03;;;;;;;6.43;2.22;;;;;;;;;;5034378;27;88534;-72
2022/05/11 00:29:30;;;;;;;8.20;2.83;;;;;;;;;;5034723;28;90282;-72
2022/05/11 00:31:57;;;;;;;8.43;2.70;;;;;;;;;;5028303;27;88594;-72
2022/05/11 00:34:23;;;;;;;8.82;2.97;;;;;;;;;;5033949;27;88881;-72
2022/05/11 00:36:49;;;;;;;9.32;2.72;;;;;;;;;;5036567;27;89288;-71
2022/05/11 00:39:16;;;;;;;6.13;2.60;;;;;;;;;;5028801;28;89119;-72
2022/05/11 00:41:42;;;;;;;8.15;2.70;;;;;;;;;;5023658;28;88908;-72
2022/05/11 00:44:12;;;;;;;6.95;2.25;;;;;;;;;;5041124;27;89690;-72
2022/05/11 00:46:56;;;;;;;7.07;2.65;;;;;;;;;;5034567;27;89221;-72
2022/05/11 00:49:38;;;;;;;5.53;2.67;;;;;;;;;;5026721;27;89112;-72
2022/05/11 00:52:07;;;;;;;4.93;2.70;;;;;;;;;;5021664;28;88058;-72
2022/05/11 00:54:36;;;;;;;11.77;2.78;;;;;;;;;;5021351;28;88522;-72
2022/05/11 00:57:04;;;;;;;7.15;3.03;;;;;;;;;;5029962;28;88683;-72
2022/05/11 00:59:32;;;;;;;6.05;2.92;;;;;;;;;;5032290;28;88591;-72
2022/05/11 01:02:03;;;;;;;6.75;3.47;;;;;;;;;;5019652;28;89822;-71
2022/05/11 01:04:32;;;;;;;7.70;3.60;;;;;;;;;;5022609;28;89301;-72
2022/05/11 01:07:00;;;;;;;6.03;2.97;;;;;;;;;;5034654;28;88968;-72
2022/05/11 01:09:26;;;;;;;11.40;3.15;;;;;;;;;;5023089;28;88826;-72
2022/05/11 01:11:55;;;;;;;7.80;3.55;;;;;;;;;;5030311;27;88338;-72
2022/05/11 01:14:24;;;;;;;9.73;3.53;;;;;;;;;;5019374;28;89382;-72
2022/05/11 01:16:50;;;;;;;9.65;3.30;;;;;;;;;;5021370;27;88701;-72
2022/05/11 01:19:31;;;;;;;9.93;3.00;;;;;;;;;;5026053;27;88970;-72
2022/05/11 01:21:57;;;;;;;;;;;;;;;;;;5028810;28;89628;-72
2022/05/11 01:24:34;;;;;;;11.82;3.70;;;;;;;;;;5024987;28;119110;-72
2022/05/11 01:27:21;;;;;;;10.80;4.18;;;;;;;;;;5036270;28;87984;-72
2022/05/11 01:29:47;;;;;;;5.93;3.00;;;;;;;;;;5023561;27;88452;-72
2022/05/11 01:32:13;;;;;;;8.02;3.75;;;;;;;;;;5028669;28;89525;-72
2022/05/11 01:34:39;;;;;;;6.35;3.35;;;;;;;;;;5020769;27;89441;-72
2022/05/11 01:37:06;;;;;;;14.95;3.42;;;;;;;;;;5030507;28;90114;-72
2022/05/11 01:39:32;;;;;;;8.65;3.40;;;;;;;;;;5037638;27;89239;-72
2022/05/11 01:41:58;;;;;;;12.32;3.88;;;;;;;;;;5032921;27;88765;-72
2022/05/11 01:44:25;;;;;;;8.23;3.35;;;;;;;;;;5033467;27;88878;-72
2022/05/11 01:46:55;;;;;;;8.43;3.53;;;;;;;;;;5026710;27;87964;-72
2022/05/11 01:49:22;;;;;;;6.22;2.97;;;;;;;;;;5026606;28;89632;-72
2022/05/11 01:51:49;;;;;;;8.80;3.00;;;;;;;;;;5028471;27;89655;-72
2022/05/11 01:54:16;;;;;;;13.55;3.40;;;;;;;;;;5023360;27;89834;-72
2022/05/11 01:56:42;;;;;;;10.13;3.10;;;;;;;;;;5028517;27;90633;-72
2022/05/11 01:59:09;;;;;;;8.95;3.40;;;;;;;;;;5023380;27;87941;-72
2022/05/11 02:01:37;;;;;;;13.05;3.88;;;;;;;;;;5027668;28;88777;-72
2022/05/11 02:04:03;;;;;;;9.75;2.95;;;;;;;;;;5022960;27;88981;-72
2022/05/11 02:09:14;;;;;;;10.35;3.85;;;;;;;;;;5038239;28;89486;-72
2022/05/11 02:11:41;;;;;;;13.13;3.78;;;;;;;;;;5040585;27;89613;-72
2022/05/11 02:14:09;;;;;;;9.52;3.88;;;;;;;;;;5036549;27;88919;-72
2022/05/11 02:16:35;;;;;;;7.78;4.13;;;;;;;;;;5026212;27;89076;-72
2022/05/11 02:19:01;;;;;;;12.90;4.13;;;;;;;;;;5031487;27;89803;-72
2022/05/11 02:21:27;;;;;;;10.15;4.35;;;;;;;;;;5014723;28;88801;-72
2022/05/11 02:23:54;;;;;;;11.90;4.60;;;;;;;;;;5017757;28;89006;-72
2022/05/11 02:26:20;;;;;;;11.90;4.53;;;;;;;;;;5022096;28;87945;-72
2022/05/11 02:28:47;;;;;;;9.30;4.15;;;;;;;;;;5036054;27;88968;-72
2022/05/11 02:31:13;;;;;;;13.73;5.38;;;;;;;;;;5037115;27;88614;-72
2022/05/11 02:33:40;;;;;;;5.60;3.78;;;;;;;;;;5037692;27;88116;-71
2022/05/11 02:36:06;;;;;;;9.20;4.03;;;;;;;;;;5016505;28;88666;-72
2022/05/11 02:38:33;;;;;;;7.55;4.00;;;;;;;;;;5017857;28;88614;-72
2022/05/11 02:41:01;;;;;;;10.05;3.92;;;;;;;;;;5017373;28;88065;-71
2022/05/11 02:43:27;;;;;;;8.85;4.20;;;;;;;;;;5026156;28;88693;-72
2022/05/11 02:45:53;;;;;;;12.35;3.78;;;;;;;;;;5026450;27;88762;-71
2022/05/11 02:48:21;;;;;;;7.95;3.78;;;;;;;;;;5035879;27;90709;-72
2022/05/11 02:50:49;;;;;;;6.30;3.83;;;;;;;;;;5033267;27;88845;-72
2022/05/11 02:53:16;;;;;;;8.73;4.07;;;;;;;;;;5021041;27;87930;-71
2022/05/11 02:55:47;;;;;;;9.35;4.15;;;;;;;;;;5024218;28;88838;-72
2022/05/11 02:58:15;;;;;;;8.60;4.13;;;;;;;;;;5034436;27;88000;-72
2022/05/11 03:00:43;;;;;;;16.17;4.07;;;;;;;;;;5034710;27;88550;-72
2022/05/11 03:03:11;;;;;;;15.10;4.80;;;;;;;;;;5036205;27;88959;-72
2022/05/11 03:05:39;;;;;;;8.30;3.85;;;;;;;;;;5025132;27;88317;-72
2022/05/11 03:08:05;;;;;;;8.32;4.05;;;;;;;;;;5035254;27;90313;-72
2022/05/11 03:10:31;;;;;;;8.57;3.92;;;;;;;;;;5016313;28;89534;-72
2022/05/11 03:12:58;;;;;;;9.55;3.67;;;;;;;;;;5017234;28;89050;-72
2022/05/11 03:15:24;;;;;;;7.38;3.65;;;;;;;;;;5030295;27;88582;-72
2022/05/11 03:17:51;;;;;;;7.22;3.92;;;;;;;;;;5024209;28;90108;-72
2022/05/11 03:20:21;;;;;;;6.85;3.53;;;;;;;;;;5024043;27;88749;-72
2022/05/11 03:22:50;;;;;;;5.57;3.67;;;;;;;;;;5035668;27;88938;-72
2022/05/11 03:25:16;;;;;;;7.43;3.38;;;;;;;;;;5023579;27;88120;-72
2022/05/11 03:27:43;;;;;;;12.95;3.65;;;;;;;;;;5026588;28;88577;-72
2022/05/11 03:30:09;;;;;;;8.20;2.70;;;;;;;;;;5030396;27;89840;-72
2022/05/11 03:35:20;;;;;;;9.57;3.13;;;;;;;;;;5020127;28;89466;-72
2022/05/11 03:37:47;;;;;;;5.97;2.50;;;;;;;;;;5028251;28;89840;-72
2022/05/11 03:40:13;;;;;;;6.95;2.83;;;;;;;;;;5043138;27;88127;-72
2022/05/11 03:42:40;;;;;;;4.78;2.50;;;;;;;;;;5025733;27;88624;-72
2022/05/11 03:45:08;;;;;;;7.22;2.38;;;;;;;;;;5022658;27;88024;-72
2022/05/11 03:47:35;;;;;;;6.50;2.38;;;;;;;;;;5026178;27;89893;-72
2022/05/11 03:50:02;;;;;;;5.50;2.40;;;;;;;;;;5017767;28;89105;-72
2022/05/11 03:52:28;;;;;;;5.18;2.25;;;;;;;;;;5032576;28;87605;-71
2022/05/11 03:54:55;;;;;;;10.63;2.75;;;;;;;;;;5024127;27;89496;-71
2022/05/11 03:57:21;;;;;;;6.55;2.42;;;;;;;;;;5024527;28;88982;-72
2022/05/11 03:59:47;;;;;;;6.70;2.63;;;;;;;;;;5041077;27;88900;-72
2022/05/11 04:02:14;;;;;;;7.72;2.38;;;;;;;;;;5039346;27;89441;-71
2022/05/11 04:04:40;;;;;;;6.50;2.47;;;;;;;;;;5032863;27;88898;-72
2022/05/11 04:07:06;;;;;;;7.40;2.88;;;;;;;;;;5032110;27;88624;-72
2022/05/11 04:09:33;;;;;;;7.22;2.53;;;;;;;;;;5027332;27;90174;-72
2022/05/11 04:11:59;;;;;;;9.80;2.60;;;;;;;;;;5028943;28;88790;-72
2022/05/11 04:14:25;;;;;;;9.23;2.95;;;;;;;;;;5038834;27;88544;-71
2022/05/11 04:16:56;;;;;;;6.80;2.58;;;;;;;;;;5029684;27;89320;-72
2022/05/11 04:19:22;;;;;;;10.68;2.65;;;;;;;;;;5019321;28;88077;-72
2022/05/11 04:21:48;;;;;;;7.45;2.45;;;;;;;;;;5024275;27;88744;-72
2022/05/11 04:24:14;;;;;;;8.40;2.38;;;;;;;;;;5029514;27;88859;-72
2022/05/11 04:26:41;;;;;;;10.25;1.92;;;;;;;;;;5019847;28;89401;-72
2022/05/11 04:29:07;;;;;;;8.52;2.50;;;;;;;;;;5031961;28;89702;-72
2022/05/11 04:31:33;;;;;;;9.70;2.22;;;;;;;;;;5038879;27;88943;-72
2022/05/11 04:34:00;;;;;;;11.13;2.58;;;;;;;;;;5028655;27;88646;-72
2022/05/11 04:36:26;;;;;;;4.80;1.98;;;;;;;;;;5022284;28;89032;-71
2022/05/11 04:38:53;;;;;;;8.35;2.28;;;;;;;;;;5037289;28;88681;-72
2022/05/11 04:41:23;;;;;;;4.53;1.80;;;;;;;;;;5022303;28;89849;-72
2022/05/11 04:43:50;;;;;;;6.88;1.65;;;;;;;;;;5038755;27;89191;-72
2022/05/11 04:46:16;;;;;;;7.38;1.70;;;;;;;;;;5017617;27;89209;-72
2022/05/11 04:48:44;;;;;;;7.28;1.90;;;;;;;;;;5022028;28;89252;-72
2022/05/11 04:51:11;;;;;;;6.10;2.05;;;;;;;;;;5026782;28;89632;-72
2022/05/11 04:53:38;;;;;;;8.73;1.55;;;;;;;;;;5037588;27;88411;-72
2022/05/11 04:56:04;;;;;;;7.65;1.90;;;;;;;;;;5020433;27;88042;-72
2022/05/11 04:58:30;;;;;;;5.00;1.50;;;;;;;;;;5017958;28;87950;-72
2022/05/11 05:00:57;;;;;;;7.72;1.38;;;;;;;;;;5021138;28;88953;-72
2022/05/11 05:03:23;;;;;;;9.50;1.85;;;;;;;;;;5030399;28;89055;-72
2022/05/11 05:05:50;;;;;;;8.00;2.00;;;;;;;;;;5038978;27;88133;-72
2022/05/11 05:08:16;;;;;;;4.03;1.70;;;;;;;;;;5029417;27;89991;-72
2022/05/11 05:10:43;;;;;;;4.55;1.33;;;;;;;;;;5039042;27;87921;-72
2022/05/11 05:13:11;;;;;;;10.43;1.55;;;;;;;;;;5025059;27;88851;-72
2022/05/11 05:15:38;;;;;;;5.35;1.40;;;;;;;;;;5025605;27;89769;-72
2022/05/11 05:18:06;;;;;;;8.57;1.52;;;;;;;;;;5023166;27;88083;-71
2022/05/11 05:20:33;;;;;;;5.38;1.42;;;;;;;;;;5032723;27;88707;-72
2022/05/11 05:22:59;;;;;;;7.22;1.58;;;;;;;;;;5030072;27;89052;-72
2022/05/11 05:25:25;;;;;;;5.55;1.42;;;;;;;;;;5029057;28;88922;-72
2022/05/11 05:27:52;;;;;;;7.30;1.45;;;;;;;;;;5022175;28;88699;-72
2022/05/11 05:33:04;;;;;;;16.25;2.03;;;;;;;;;;5039215;28;89496;-72
2022/05/11 05:35:31;;;;;;;7.65;1.40;;;;;;;;;;5020345;27;88693;-72
2022/05/11 05:37:57;;;;;;;6.28;1.30;;;;;;;;;;5018728;28;88929;-72
2022/05/11 05:40:23;;;;;;;4.80;1.23;;;;;;;;;;5026982;28;90181;-72
2022/05/11 05:42:49;;;;;;;5.47;1.35;;;;;;;;;;5029399;28;89995;-72
2022/05/11 05:45:16;;;;;;;5.97;1.77;;;;;;;;;;5031046;27;88071;-72
2022/05/11 05:47:42;;;;;;;3.42;0.80;;;;;;;;;;5025650;27;88763;-71
2022/05/11 05:50:09;;;;;;;6.60;1.77;;;;;;;;;;5030856;27;88874;-71
2022/05/11 05:52:35;;;;;;;4.78;1.35;;;;;;;;;;5026995;27;88582;-72
2022/05/11 05:55:03;;;;;;;4.97;1.25;;;;;;;;;;5018744;28;89250;-72
2022/05/11 05:57:30;;;;;;;6.20;1.50;;;;;;;;;;5027701;27;88111;-72
2022/05/11 05:59:56;;;;;;;4.10;1.27;;;;;;;;;;5038270;27;88803;-73
2022/05/11 06:02:22;;;;;;;6.13;1.40;;;;;;;;;;5037687;27;89410;-73
2022/05/11 06:04:49;;;;;;;6.20;1.30;;;;;;;;;;5037183;27;88096;-72
2022/05/11 06:07:17;;;;;;;5.47;1.27;;;;;;;;;;5037465;27;89887;-73
2022/05/11 06:09:43;;;;;;;9.23;1.40;;;;;;;;;;5036094;27;88836;-72
2022/05/11 06:12:11;;;;;;;5.35;1.30;;;;;;;;;;5026133;28;88772;-73
2022/05/11 06:14:39;;;;;;;7.53;1.20;;;;;;;;;;5036920;27;88942;-73
2022/05/11 06:17:12;;;;;;;9.02;1.40;;;;;;;;;;5036623;27;88005;-72
2022/05/11 06:19:38;;;;;;;11.20;1.73;;;;;;;;;;5023562;27;89524;-72
2022/05/11 06:22:05;;;;;;;6.13;1.52;;;;;;;;;;5023683;28;88664;-73
2022/05/11 06:24:31;;;;;;;5.78;1.10;;;;;;;;;;5029847;27;88314;-73
2022/05/11 06:26:58;;;;;;;6.00;2.05;;;;;;;;;;5026702;28;88823;-71
2022/05/11 06:29:29;;;;;;;6.28;1.35;;;;;;;;;;5029926;28;87927;-71
2022/05/11 06:31:55;;;;;;;7.07;1.48;;;;;;;;;;5029651;27;88733;-71
2022/05/11 06:34:23;;;;;;;4.10;1.40;;;;;;;;;;5016845;27;89136;-72
2022/05/11 06:36:49;;;;;;;9.90;1.65;;;;;;;;;;5033829;27;88131;-72
2022/05/11 06:39:15;;;;;;;6.15;1.48;;;;;;;;;;5035718;27;89669;-73
2022/05/11 06:41:42;;;;;;;7.78;1.05;;;;;;;;;;5018225;27;90140;-70
2022/05/11 06:44:09;;;;;;;5.28;1.48;;;;;;;;;;5020260;28;87546;-72
2022/05/11 06:46:36;;;;;;;8.93;1.48;;;;;;;;;;5034436;27;88045;-71
2022/05/11 06:49:02;;;;;;;8.65;1.42;;;;;;;;;;5021425;28;88774;-73
2022/05/11 06:51:28;;;;;;;9.60;1.20;;;;;;;;;;5036036;28;88770;-71
2022/05/11 06:59:27;;;;;;;6.72;1.42;;;;;;;;;;5020777;28;90023;-72
2022/05/11 07:01:57;;;;;;;6.95;1.40;;;;;;;;;;5025442;27;90007;-71
2022/05/11 07:04:25;;;;;;;6.55;1.35;;;;;;;;;;5018086;28;88077;-70
2022/05/11 07:06:52;;;;;;;6.13;1.10;;;;;;;;;;5022180;28;89001;-73
2022/05/11 07:09:19;;;;;;;9.93;1.38;;;;;;;;;;5019993;27;88348;-71
2022/05/11 07:14:30;;;;;;;8.90;1.40;;;;;;;;;;5040857;27;88609;-70
2022/05/11 07:16:57;;;;;;;7.05;1.33;;;;;;;;;;5024071;27;89446;-72
2022/05/11 07:19:24;;;;;;;13.15;1.95;;;;;;;;;;5034982;28;90333;-71
2022/05/11 07:21:50;;;;;;;5.93;1.10;;;;;;;;;;5026298;27;90219;-73
2022/05/11 07:24:17;;;;;;;8.55;1.52;;;;;;;;;;5040231;27;88694;-73
2022/05/11 07:26:43;;;;;;;9.23;2.10;;;;;;;;;;5032167;27;88935;-72
2022/05/11 07:29:09;;;;;;;12.05;1.70;;;;;;;;;;5034758;27;89249;-72
2022/05/11 07:31:39;;;;;;;5.55;1.85;;;;;;;;;;5028610;27;88900;-72
2022/05/11 07:34:05;;;;;;;12.80;1.92;;;;;;;;;;5020260;28;89008;-72
2022/05/11 07:36:32;;;;;;;8.98;1.90;;;;;;;;;;5024171;28;89782;-72
2022/05/11 07:38:58;;;;;;;4.60;1.00;;;;;;;;;;5036872;27;88451;-72
2022/05/11 07:41:24;;;;;;;7.65;1.35;;;;;;;;;;5032699;27;89783;-72
2022/05/11 07:43:51;;;;;;;8.68;1.55;;;;;;;;;;5020294;28;88699;-72
2022/05/11 07:46:17;;;;;;;6.63;1.08;;;;;;;;;;5021737;27;88613;-72
2022/05/11 07:48:43;;;;;;;4.10;1.20;;;;;;;;;;5020881;28;90032;-72
2022/05/11 07:51:10;;;;;;;10.27;1.55;;;;;;;;;;5019517;28;87957;-73
2022/05/11 07:53:36;;;;;;;4.32;1.40;;;;;;;;;;5020159;28;88923;-72
2022/05/11 08:01:38;;;;;;;5.22;1.60;;;;;;;;;;5043215;27;87937;-73
2022/05/11 08:04:04;;;;;;;6.32;1.25;;;;;;;;;;5026495;27;89856;-73
2022/05/11 08:06:31;;;;;;;5.82;1.30;;;;;;;;;;5034138;28;89932;-72
2022/05/11 08:08:57;;;;;;;10.68;1.70;;;;;;;;;;5020638;27;89216;-72
2022/05/11 08:11:23;;;;;;;5.88;1.80;;;;;;;;;;5019597;28;87922;-72
2022/05/11 08:13:49;;;;;;;9.18;1.67;;;;;;;;;;5019945;28;88532;-70
2022/05/11 08:16:18;;;;;;;9.65;1.20;;;;;;;;;;5031950;27;88907;-71
2022/05/11 08:18:44;;;;;;;14.95;1.10;;;;;;;;;;5033579;28;88967;-72
2022/05/11 08:21:10;;;;;;;7.93;1.33;;;;;;;;;;5028073;28;88423;-72
2022/05/11 08:23:38;;;;;;;8.70;1.13;;;;;;;;;;5035333;28;87927;-70
2022/05/11 08:26:04;;;;;;;9.20;1.63;;;;;;;;;;5028639;28;88194;-72
2022/05/11 08:28:31;;;;;;;7.50;1.27;;;;;;;;;;5019649;28;89064;-70
2022/05/11 08:33:42;;;;;;;4.68;1.00;;;;;;;;;;5019190;28;89434;-70
2022/05/11 08:36:28;;;;;;;8.45;1.63;;;;;;;;;;5018864;28;88841;-70
2022/05/11 08:38:56;;;;;;;9.73;1.23;;;;;;;;;;5035040;27;88773;-68
2022/05/11 08:41:28;;;;;;;10.95;1.42;;;;;;;;;;5021900;27;88473;-71
2022/05/11 08:44:06;;;;;;;11.80;1.27;;;;;;;;;;5022046;28;89009;-72
2022/05/11 08:46:50;;;;;;;9.23;1.30;;;;;;;;;;5029263;27;88862;-72
2022/05/11 08:49:28;;;;;;;2.92;0.80;;;;;;;;;;5019891;28;87938;-71
2022/05/11 08:52:02;;;;;;;7.45;1.45;;;;;;;;;;5019450;28;88050;-71
2022/05/11 08:54:49;;;;;;;5.00;1.50;;;;;;;;;;5027636;28;88590;-73
2022/05/11 08:57:20;;;;;;;12.57;2.35;;;;;;;;;;5019436;28;89799;-72
2022/05/11 08:59:46;;;;;;;4.30;1.52;;;;;;;;;;5038592;27;88049;-71
2022/05/11 09:02:16;;;;;;;7.75;1.90;;;;;;;;;;5039289;27;88758;-72
2022/05/11 09:04:45;;;;;;;6.05;0.90;;;;;;;;;;5025687;27;88933;-72
2022/05/11 09:07:12;;;;;;;5.50;1.20;;;;;;;;;;5022116;28;88048;-72
2022/05/11 09:09:39;;;;;;;4.82;1.02;;;;;;;;;;5018759;28;88886;-71
2022/05/11 09:12:06;;;;;;;6.40;0.98;;;;;;;;;;5018886;28;88045;-72
2022/05/11 09:14:44;;;;;;;13.50;1.33;;;;;;;;;;5030817;28;89001;-72
2022/05/11 09:17:24;;;;;;;2.70;0.80;;;;;;;;;;5038038;27;88814;-72
2022/05/11 09:19:58;;;;;;;11.27;1.50;;;;;;;;;;5038224;27;88000;-72
2022/05/11 09:22:25;;;;;;;8.38;1.25;;;;;;;;;;5029535;27;88825;-72
2022/05/11 09:24:53;;;;;;;6.60;1.30;;;;;;;;;;5029789;27;89451;-70
2022/05/11 09:27:22;;;;;;;6.75;1.25;;;;;;;;;;5025233;27;88091;-72
2022/05/11 09:29:54;;;;;;;12.25;1.13;;;;;;;;;;5029900;27;88605;-71
2022/05/11 09:32:37;;;;;;;6.40;1.25;;;;;;;;;;5058854;27;88047;-71
2022/05/11 09:35:16;;;;;;;4.20;0.98;;;;;;;;;;5039349;27;88734;-72
2022/05/11 09:37:44;;;;;;;6.65;1.95;;;;;;;;;;5037782;27;88828;-72
2022/05/11 09:40:12;;;;;;;10.38;1.42;;;;;;;;;;5039268;27;87539;-73
2022/05/11 09:42:54;;;;;;;12.25;1.33;;;;;;;;;;5045826;27;88073;-72
2022/05/11 09:45:40;;;;;;;6.30;1.52;;;;;;;;;;5032107;27;90073;-73
2022/05/11 09:48:16;;;;;;;2.60;0.88;;;;;;;;;;5031511;28;88982;-72
2022/05/11 09:50:43;;;;;;;5.43;1.33;;;;;;;;;;5019439;27;87944;-73
2022/05/11 09:53:22;;;;;;;6.78;1.15;;;;;;;;;;5035220;28;89091;-71
2022/05/11 09:55:49;;;;;;;4.60;1.13;;;;;;;;;;5025894;28;88359;-72
2022/05/11 09:58:25;;;;;;;9.90;1.52;;;;;;;;;;5022698;27;89118;-73
2022/05/11 10:00:52;;;;;;;6.38;1.40;;;;;;;;;;5018363;28;87969;-72
2022/05/11 10:03:25;;;;;;;6.97;1.33;;;;;;;;;;5045111;27;88262;-72
2022/05/11 10:05:52;;;;;;;4.78;1.33;;;;;;;;;;5018204;27;88037;-71
2022/05/11 10:08:26;;;;;;;6.63;1.38;;;;;;;;;;5031337;27;88909;-69
2022/05/11 10:10:52;;;;;;;7.35;1.52;;;;;;;;;;5038017;27;88621;-72
2022/05/11 10:13:24;;;;;;;10.43;1.75;;;;;;;;;;5029570;27;89839;-72
2022/05/11 10:24:38;;;;;;;7.25;1.50;;;;;;;;;;5023204;27;89449;-70
2022/05/11 10:27:24;;;;;;;5.18;1.55;;;;;;;;;;5018620;27;88882;-71
2022/05/11 10:29:59;;;;;;;8.27;1.85;;;;;;;;;;5035482;27;87904;-70
2022/05/11 10:32:32;;;;;;;12.20;1.70;;;;;;;;;;5028691;27;88556;-72
2022/05/11 10:35:17;;;;;;;10.27;1.70;;;;;;;;;;5016994;28;88825;-71
2022/05/11 10:38:01;;;;;;;9.70;1.58;;;;;;;;;;5030372;28;88117;-72
2022/05/11 10:40:31;;;;;;;4.00;1.40;;;;;;;;;;5022672;28;90824;-73
2022/05/11 10:43:15;;;;;;;6.50;1.45;;;;;;;;;;5019992;28;88030;-71
2022/05/11 10:45:44;;;;;;;8.57;1.45;;;;;;;;;;5033406;27;88543;-71
2022/05/11 10:48:37;;;;;;;8.68;1.88;;;;;;;;;;5021039;28;88163;-71
2022/05/11 10:51:09;;;;;;;7.85;1.70;;;;;;;;;;5007393;28;89078;-71
2022/05/11 10:53:49;;;;;;;6.63;1.60;;;;;;;;;;5017517;28;87905;-73
2022/05/11 10:56:18;;;;;;;11.00;1.38;;;;;;;;;;5015670;28;88654;-72
2022/05/11 10:58:56;;;;;;;8.82;1.73;;;;;;;;;;5017767;28;87238;-72
2022/05/11 11:01:25;;;;;;;6.80;1.60;;;;;;;;;;5020210;28;88099;-71
2022/05/11 11:04:04;;;;;;;9.23;1.38;;;;;;;;;;5017315;28;88944;-72
2022/05/11 11:09:21;;;;;;;11.43;2.15;;;;;;;;;;5019869;28;88880;-71
2022/05/11 11:11:47;;;;;;;6.90;1.63;;;;;;;;;;5035538;28;88153;-71
2022/05/11 11:14:17;;;;;;;5.95;1.58;;;;;;;;;;5037361;27;88790;-71
2022/05/11 11:17:05;;;;;;;8.18;1.65;;;;;;;;;;5020830;27;88581;-71
2022/05/11 11:19:32;;;;;;;13.70;1.67;;;;;;;;;;5016994;28;87870;-71
2022/05/11 11:22:01;;;;;;;6.07;1.77;;;;;;;;;;5018353;28;88813;-71
2022/05/11 11:24:28;;;;;;;13.43;1.33;;;;;;;;;;5040670;27;88303;-72
2022/05/11 11:26:59;;;;;;;5.78;1.20;;;;;;;;;;5024940;28;88129;-71
2022/05/11 11:29:27;;;;;;;6.30;1.20;;;;;;;;;;5017065;28;88985;-71
2022/05/11 11:31:58;;;;;;;10.45;1.15;;;;;;;;;;5016733;28;88887;-72
2022/05/11 11:34:44;;;;;;;5.53;1.30;;;;;;;;;;5016781;28;89520;-73
2022/05/11 11:37:35;;;;;;;8.20;1.50;;;;;;;;;;5017668;28;89499;-72
2022/05/11 11:40:13;;;;;;;4.00;1.08;;;;;;;;;;5017072;28;88292;-70
2022/05/11 11:42:44;;;;;;;6.45;1.35;;;;;;;;;;5016997;28;89233;-71
2022/05/11 11:45:36;;;;;;;6.05;1.33;;;;;;;;;;5019659;27;89136;-71
2022/05/11 11:48:04;;;;;;;24.50;2.20;;;;;;;;;;5023501;27;88036;-71
2022/05/11 11:50:44;;;;;;;8.48;1.50;;;;;;;;;;5024145;27;88202;-71
2022/05/11 11:53:12;;;;;;;6.95;1.95;;;;;;;;;;5020210;28;88722;-69
2022/05/11 11:55:38;;;;;;;8.45;1.90;;;;;;;;;;5019516;28;89463;-71
2022/05/11 11:58:12;;;;;;;5.85;1.55;;;;;;;;;;5016683;28;89461;-70
2022/05/11 12:00:48;;;;;;;6.22;1.30;;;;;;;;;;5021692;27;88091;-70
2022/05/11 12:03:18;;;;;;;8.32;1.50;;;;;;;;;;5019705;28;89695;-70
2022/05/11 12:05:50;;;;;;;6.55;1.60;;;;;;;;;;5022294;28;89893;-70
2022/05/11 12:17:05;;;;;;;6.20;1.52;;;;;;;;;;5023762;27;88719;-71
2022/05/11 12:19:36;;;;;;;5.80;1.70;;;;;;;;;;5037041;28;89227;-71
2022/05/11 12:22:12;;;;;;;12.43;2.08;;;;;;;;;;5035726;27;87926;-71
2022/05/11 12:24:41;;;;;;;3.20;1.30;;;;;;;;;;5038202;28;88846;-71
2022/05/11 12:27:12;;;;;;;10.77;1.85;;;;;;;;;;5038478;27;88820;-70
2022/05/11 12:29:55;;;;;;;7.82;1.52;;;;;;;;;;5024972;28;88777;-70
2022/05/11 12:32:22;;;;;;;4.32;1.60;;;;;;;;;;5041753;28;88761;-69
2022/05/11 12:34:48;;;;;;;9.52;1.95;;;;;;;;;;5033753;27;87935;-71
2022/05/11 12:37:31;;;;;;;8.70;1.90;;;;;;;;;;5035052;28;88393;-70
2022/05/11 12:39:57;;;;;;;4.22;1.48;;;;;;;;;;5022710;28;89097;-70
2022/05/11 12:42:28;;;;;;;6.53;1.60;;;;;;;;;;5024088;28;88741;-70
2022/05/11 12:44:55;;;;;;;4.50;1.48;;;;;;;;;;5040242;27;90374;-70
2022/05/11 12:47:22;;;;;;;11.30;1.90;;;;;;;;;;5060040;27;90030;-70
2022/05/11 12:49:48;;;;;;;10.63;2.42;;;;;;;;;;5059108;27;88718;-70
2022/05/11 12:52:15;;;;;;;14.57;2.28;;;;;;;;;;5035062;27;89558;-70
2022/05/11 12:54:53;;;;;;;12.23;2.40;;;;;;;;;;5041326;27;89085;-70
2022/05/11 12:57:20;;;;;;;10.43;1.75;;;;;;;;;;5039395;27;88756;-70
2022/05/11 12:59:54;;;;;;;17.20;2.08;;;;;;;;;;5039387;27;88810;-69
2022/05/11 13:02:32;;;;;;;8.45;1.98;;;;;;;;;;5030260;27;88130;-70
2022/05/11 13:05:00;;;;;;;11.75;2.45;;;;;;;;;;5016659;28;89871;-69
2022/05/11 13:07:42;;;;;;;7.82;2.22;;;;;;;;;;5023247;28;88314;-69
2022/05/11 13:10:12;;;;;;;11.13;2.13;;;;;;;;;;5032696;27;89064;-69
2022/05/11 13:12:39;;;;;;;15.38;2.38;;;;;;;;;;5037540;27;88778;-70
2022/05/11 13:15:06;;;;;;;10.27;2.20;;;;;;;;;;5034738;27;90543;-69
2022/05/11 13:17:34;;;;;;;11.52;2.60;;;;;;;;;;5041953;27;88121;-70
2022/05/11 13:20:07;;;;;;;11.85;2.50;;;;;;;;;;5039439;27;89798;-70
2022/05/11 13:22:34;;;;;;;15.80;2.25;;;;;;;;;;5021126;27;88150;-71
2022/05/11 13:25:05;;;;;;;7.10;2.40;;;;;;;;;;5018417;28;88565;-70
2022/05/11 13:27:41;;;;;;;19.00;3.13;;;;;;;;;;5018336;28;89940;-70
2022/05/11 13:30:08;;;;;;;15.43;3.33;;;;;;;;;;5038950;27;88057;-71
2022/05/11 13:32:39;;;;;;;10.00;2.05;;;;;;;;;;5025811;27;88588;-71
2022/05/11 13:35:14;;;;;;;7.70;2.58;;;;;;;;;;5018532;28;89102;-71
2022/05/11 13:37:41;;;;;;;9.07;2.75;;;;;;;;;;5019397;28;88117;-70
2022/05/11 13:40:08;;;;;;;12.70;2.35;;;;;;;;;;5041295;27;89611;-71
2022/05/11 13:42:35;;;;;;;9.98;2.45;;;;;;;;;;5022075;28;88141;-71
2022/05/11 13:45:08;;;;;;;11.65;2.75;;;;;;;;;;5028991;27;88889;-72
2022/05/11 13:50:28;;;;;;;13.32;2.70;;;;;;;;;;5017787;28;87892;-72
2022/05/11 13:52:56;;;;;;;11.23;2.50;;;;;;;;;;5018996;28;89000;-71
2022/05/11 13:55:28;;;;;;;15.60;3.03;;;;;;;;;;5018645;28;89799;-71
2022/05/11 13:57:55;;;;;;;21.45;3.40;;;;;;;;;;5026584;28;88875;-71
2022/05/11 14:00:22;;;;;;;10.93;2.65;;;;;;;;;;5035874;28;88488;-71
2022/05/11 14:02:51;;;;;;;18.58;3.22;;;;;;;;;;5020811;28;88079;-71
2022/05/11 14:05:17;;;;;;;21.50;2.57;;;;;;;;;;5017647;28;88933;-71
2022/05/11 14:07:43;;;;;;;14.45;3.22;;;;;;;;;;5017293;28;88811;-71
2022/05/11 14:10:10;;;;;;;10.15;2.70;;;;;;;;;;5018279;28;88004;-71
2022/05/11 14:12:37;;;;;;;11.25;2.67;;;;;;;;;;5021794;28;88922;-71
2022/05/11 14:15:04;;;;;;;11.32;3.20;;;;;;;;;;5034746;27;89133;-71
2022/05/11 14:17:34;;;;;;;16.25;2.92;;;;;;;;;;5038052;27;87993;-71
2022/05/11 14:20:03;;;;;;;18.75;2.95;;;;;;;;;;5038010;27;88584;-71
2022/05/11 14:22:30;;;;;;;11.23;3.38;;;;;;;;;;5018113;28;88384;-71
2022/05/11 14:24:57;;;;;;;12.73;2.35;;;;;;;;;;5022083;28;88181;-71
2022/05/11 14:27:23;;;;;;;18.25;3.20;;;;;;;;;;5017752;28;88684;-71
2022/05/11 14:29:49;;;;;;;24.77;3.70;;;;;;;;;;5019228;28;88827;-71
2022/05/11 14:32:26;;;;;;;21.05;2.95;;;;;;;;;;5036977;27;88350;-71
2022/05/11 14:35:00;;;;;;;33.63;3.28;;;;;;;;;;5036306;27;89485;-71
2022/05/11 14:37:26;;;;;;;18.55;3.08;;;;;;;;;;5035982;28;88214;-71
2022/05/11 14:39:53;;;;;;;14.13;3.10;;;;;;;;;;5022704;27;88450;-71
2022/05/11 14:42:20;;;;;;;15.60;2.85;;;;;;;;;;5021486;28;88815;-71
2022/05/11 14:44:46;;;;;;;12.48;2.92;;;;;;;;;;5028897;27;88014;-71
2022/05/11 14:47:26;;;;;;;19.27;2.97;;;;;;;;;;5017973;28;87995;-71
2022/05/11 14:49:52;;;;;;;17.25;2.95;;;;;;;;;;5017570;28;88707;-71
2022/05/11 14:52:19;;;;;;;18.23;2.95;;;;;;;;;;5019104;28;89894;-71
2022/05/11 14:54:45;;;;;;;48.20;4.53;;;;;;;;;;5016892;28;89641;-71
2022/05/11 15:02:43;;;;;;;65.85;4.60;;;;;;;;;;5017588;28;90038;-68
2022/05/11 15:05:11;;;;;;;11.65;2.88;;;;;;;;;;5018098;28;88660;-68
2022/05/11 15:07:38;;;;;;;32.72;3.88;;;;;;;;;;5040305;27;88897;-69
2022/05/11 15:10:04;;;;;;;13.88;2.55;;;;;;;;;;5037529;27;89100;-69
2022/05/11 15:15:16;;;;;;;28.83;3.15;;;;;;;;;;5029055;27;89083;-69
2022/05/11 15:17:43;;;;;;;13.90;3.00;;;;;;;;;;5037505;27;87982;-70
2022/05/11 15:20:15;;;;;;;24.20;3.42;;;;;;;;;;5025780;27;88968;-69
2022/05/11 15:22:42;;;;;;;16.13;2.70;;;;;;;;;;5017492;28;88808;-69
2022/05/11 15:25:11;;;;;;;23.77;3.78;;;;;;;;;;5016380;28;88201;-70
2022/05/11 15:27:39;;;;;;;18.77;3.23;;;;;;;;;;5034397;28;88876;-69
2022/05/11 15:30:05;;;;;;;21.20;3.88;;;;;;;;;;5043877;27;88999;-69
2022/05/11 15:32:32;;;;;;;16.25;3.63;;;;;;;;;;5041467;27;88786;-69
2022/05/11 15:34:58;;;;;;;19.55;3.78;;;;;;;;;;5029089;27;89693;-69
2022/05/11 15:37:25;;;;;;;22.58;3.22;;;;;;;;;;5021001;28;87517;-69
2022/05/11 15:39:52;;;;;;;22.92;2.97;;;;;;;;;;5020716;28;88079;-69
2022/05/11 15:42:23;;;;;;;18.45;2.83;;;;;;;;;;5027569;28;89899;-69
2022/05/11 15:44:52;;;;;;;21.45;3.30;;;;;;;;;;5039059;27;89216;-68